createdAt,value
2023-02-26T00:02:42.929Z,26.20
2023-02-26T00:05:45.756Z,26.60
2023-02-26T00:08:47.875Z,26.40
2023-02-26T00:11:50.384Z,26.30
2023-02-26T00:14:52.857Z,26.40
2023-02-26T00:18:07.658Z,25.60
2023-02-26T00:21:19.568Z,25.40
2023-02-26T00:24:21.998Z,25.80
2023-02-26T00:27:23.992Z,25.70
2023-02-26T00:30:26.689Z,26.10
2023-02-26T00:33:28.933Z,26.10
2023-02-26T00:36:50.649Z,26.10
2023-02-26T00:40:01.632Z,26.90
2023-02-26T00:43:08.271Z,26.60
2023-02-26T00:46:10.289Z,26.70
2023-02-26T00:49:44.567Z,26.60
2023-02-26T00:52:52.391Z,26.60
2023-02-26T00:55:54.673Z,26.40
2023-02-26T00:58:56.716Z,26.70
2023-02-26T01:01:59.030Z,26.40
2023-02-26T01:05:01.305Z,26.40
2023-02-26T01:08:12.683Z,26.90
2023-02-26T01:11:14.949Z,27.10
2023-02-26T01:14:18.160Z,26.80
2023-02-26T01:17:26.229Z,27.00
2023-02-26T01:20:35.666Z,26.20
2023-02-26T01:23:43.798Z,26.40
2023-02-26T01:26:47.693Z,26.20
2023-02-26T01:29:49.803Z,26.90
2023-02-26T01:33:00.617Z,26.80
2023-02-26T01:36:19.943Z,26.10
2023-02-26T01:39:31.047Z,25.90
2023-02-26T01:42:37.305Z,26.30
2023-02-26T01:46:00.883Z,25.20
2023-02-26T01:49:03.773Z,24.50
2023-02-26T01:52:27.181Z,24.20
2023-02-26T01:55:29.909Z,24.60
2023-02-26T01:58:35.658Z,25.00
2023-02-26T02:01:38.958Z,24.60
2023-02-26T02:04:42.781Z,25.40
2023-02-26T02:07:44.772Z,25.10
2023-02-26T02:10:49.725Z,25.30
2023-02-26T02:14:09.944Z,25.90
2023-02-26T02:17:12.142Z,26.70
2023-02-26T02:20:32.855Z,25.90
2023-02-26T02:23:47.711Z,26.10
2023-02-26T02:27:22.434Z,26.30
2023-02-26T02:31:02.359Z,26.80
2023-02-26T02:34:10.385Z,27.20
2023-02-26T02:37:32.596Z,27.00
2023-02-26T02:40:39.457Z,27.60
2023-02-26T02:43:43.642Z,28.10
2023-02-26T02:46:49.434Z,27.80
2023-02-26T02:50:03.240Z,27.40
2023-02-26T02:53:18.632Z,28.20
2023-02-26T02:56:27.784Z,28.10
2023-02-26T02:59:39.746Z,27.90
2023-02-26T03:03:05.697Z,27.30
2023-02-26T03:06:07.999Z,26.30
2023-02-26T03:09:10.838Z,27.20
2023-02-26T03:12:13.137Z,27.50
2023-02-26T03:15:18.711Z,26.90
2023-02-26T03:18:39.385Z,26.40
2023-02-26T03:21:50.645Z,26.50
2023-02-26T03:25:23.288Z,26.00
2023-02-26T03:28:31.907Z,26.50
2023-02-26T03:32:03.580Z,27.20
2023-02-26T03:35:17.062Z,28.10
2023-02-26T03:38:39.251Z,28.50
2023-02-26T03:42:00.569Z,28.80
2023-02-26T03:45:10.561Z,28.10
2023-02-26T03:48:21.500Z,28.20
2023-02-26T03:51:26.753Z,28.60
2023-02-26T03:54:41.692Z,28.10
2023-02-26T03:57:44.529Z,28.20
2023-02-26T04:00:50.723Z,28.20
2023-02-26T04:04:18.923Z,27.30
2023-02-26T04:07:22.544Z,27.20
2023-02-26T04:10:34.077Z,26.70
2023-02-26T04:13:36.354Z,26.80
2023-02-26T04:16:38.382Z,27.60
2023-02-26T04:19:40.653Z,27.00
2023-02-26T04:22:42.620Z,27.00
2023-02-26T04:25:45.256Z,27.70
2023-02-26T04:28:47.243Z,27.40
2023-02-26T04:31:49.681Z,27.20
2023-02-26T04:34:51.715Z,26.10
2023-02-26T04:37:54.023Z,26.10
2023-02-26T04:40:56.072Z,26.30
2023-02-26T04:43:58.396Z,27.00
2023-02-26T04:47:00.353Z,27.10
2023-02-26T04:50:02.780Z,28.10
2023-02-26T04:53:05.084Z,28.10
2023-02-26T04:56:07.883Z,27.80
2023-02-26T04:59:10.100Z,28.30
2023-02-26T05:02:12.316Z,29.20
2023-02-26T05:05:14.286Z,28.30
2023-02-26T05:08:16.687Z,28.80
2023-02-26T05:11:18.875Z,29.60
2023-02-26T05:14:21.162Z,29.90
2023-02-26T05:17:23.301Z,28.50
2023-02-26T05:20:26.590Z,28.50
2023-02-26T05:23:28.855Z,28.90
2023-02-26T05:26:31.476Z,29.60
2023-02-26T05:29:33.434Z,28.50
2023-02-26T05:32:35.937Z,28.90
2023-02-26T05:35:38.037Z,28.20
2023-02-26T05:38:40.305Z,28.30
2023-02-26T05:41:42.290Z,27.90
2023-02-26T05:44:44.566Z,27.80
2023-02-26T05:47:46.572Z,28.30
2023-02-26T05:50:50.527Z,28.70
2023-02-26T05:53:52.479Z,29.20
2023-02-26T05:56:55.777Z,29.20
2023-02-26T05:59:57.731Z,28.60
2023-02-26T06:03:00.025Z,28.00
2023-02-26T06:06:02.150Z,27.60
2023-02-26T06:09:04.573Z,27.30
2023-02-26T06:12:06.821Z,27.10
2023-02-26T06:15:10.098Z,27.10
2023-02-26T06:18:12.144Z,27.10
2023-02-26T06:21:16.849Z,26.80
2023-02-26T06:24:19.071Z,26.50
2023-02-26T06:27:22.370Z,26.90
2023-02-26T06:30:24.704Z,27.20
2023-02-26T06:33:27.712Z,27.40
2023-02-26T06:36:29.712Z,27.40
2023-02-26T06:39:32.621Z,27.50
2023-02-26T06:42:34.568Z,27.10
2023-02-26T06:45:36.887Z,26.50
2023-02-26T06:48:38.899Z,26.10
2023-02-26T06:51:41.487Z,25.60
2023-02-26T06:54:43.431Z,25.40
2023-02-26T06:57:45.703Z,25.00
2023-02-26T07:00:48.250Z,25.30
2023-02-26T07:03:50.954Z,25.20
2023-02-26T07:06:52.990Z,25.60
2023-02-26T07:09:55.476Z,26.40
2023-02-26T07:12:57.463Z,27.40
2023-02-26T07:15:59.776Z,27.80
2023-02-26T07:19:01.820Z,26.90
2023-02-26T07:22:04.077Z,27.90
2023-02-26T07:25:07.270Z,26.70
2023-02-26T07:28:09.540Z,26.70
2023-02-26T07:31:11.628Z,27.40
2023-02-26T07:34:14.006Z,28.40
2023-02-26T07:37:15.955Z,28.40
2023-02-26T07:40:18.904Z,28.60
2023-02-26T07:43:20.966Z,28.00
2023-02-26T07:46:23.381Z,27.60
2023-02-26T07:49:25.550Z,28.30
2023-02-26T07:52:28.727Z,28.10
2023-02-26T07:55:30.741Z,28.80
2023-02-26T07:58:33.135Z,27.90
2023-02-26T08:01:37.544Z,28.50
2023-02-26T08:04:40.557Z,28.70
2023-02-26T08:07:42.896Z,27.80
2023-02-26T08:10:45.107Z,28.60
2023-02-26T08:13:47.132Z,28.80
2023-02-26T08:16:49.488Z,28.30
2023-02-26T08:19:51.505Z,28.80
2023-02-26T08:22:53.752Z,29.30
2023-02-26T08:26:07.326Z,29.80
2023-02-26T08:29:09.610Z,29.80
2023-02-26T08:32:11.972Z,29.80
2023-02-26T08:35:14.248Z,28.70
2023-02-26T08:38:16.297Z,28.40
2023-02-26T08:41:18.678Z,28.60
2023-02-26T08:44:20.676Z,28.50
2023-02-26T08:47:28.693Z,29.20
2023-02-26T08:50:30.828Z,31.20
2023-02-26T08:53:33.072Z,30.20
2023-02-26T08:56:35.017Z,31.10
2023-02-26T08:59:37.275Z,31.20
2023-02-26T09:02:39.344Z,31.20
2023-02-26T09:05:41.834Z,31.50
2023-02-26T09:08:43.798Z,31.20
2023-02-26T09:11:46.245Z,30.30
2023-02-26T09:14:48.321Z,30.10
2023-02-26T09:17:51.680Z,29.80
2023-02-26T09:20:53.764Z,30.00
2023-02-26T09:23:55.992Z,30.00
2023-02-26T09:26:58.289Z,29.10
2023-02-26T09:30:00.596Z,29.10
2023-02-26T09:33:02.635Z,29.80
2023-02-26T09:36:05.136Z,29.30
2023-02-26T09:39:08.793Z,30.00
2023-02-26T09:42:31.975Z,30.50
2023-02-26T09:45:38.461Z,29.80
2023-02-26T09:48:42.369Z,29.50
2023-02-26T09:51:46.654Z,28.90
2023-02-26T09:55:15.602Z,28.20
2023-02-26T09:58:19.009Z,29.20
2023-02-26T10:01:54.628Z,29.80
2023-02-26T10:05:19.212Z,29.80
2023-02-26T10:08:26.622Z,29.60
2023-02-26T10:11:31.443Z,29.70
2023-02-26T10:14:55.038Z,29.50
2023-02-26T10:18:18.372Z,30.10
2023-02-26T10:21:45.636Z,30.40
2023-02-26T10:24:57.030Z,29.90
2023-02-26T10:28:01.710Z,29.60
2023-02-26T10:31:26.877Z,30.00
2023-02-26T10:34:51.617Z,28.80
2023-02-26T10:38:02.887Z,28.50
2023-02-26T10:41:11.605Z,27.60
2023-02-26T10:44:30.005Z,28.90
2023-02-26T10:47:48.543Z,28.20
2023-02-26T10:50:58.993Z,27.90
2023-02-26T10:54:24.777Z,28.10
2023-02-26T10:57:33.171Z,27.90
2023-02-26T11:00:35.752Z,28.40
2023-02-26T11:03:43.482Z,27.90
2023-02-26T11:06:51.513Z,28.40
2023-02-26T11:09:54.900Z,27.80
2023-02-26T11:12:58.701Z,27.70
2023-02-26T11:16:11.220Z,27.70
2023-02-26T11:19:15.633Z,28.10
2023-02-26T11:22:18.551Z,28.30
2023-02-26T11:25:25.400Z,26.20
2023-02-26T11:28:44.504Z,26.20
2023-02-26T11:31:55.512Z,26.30
2023-02-26T11:34:57.612Z,27.30
2023-02-26T11:38:02.508Z,26.10
2023-02-26T11:41:05.816Z,25.00
2023-02-26T11:44:13.712Z,23.90
2023-02-26T11:47:27.281Z,25.20
2023-02-26T11:50:30.525Z,26.70
2023-02-26T11:53:36.539Z,27.10
2023-02-26T11:56:44.370Z,28.70
2023-02-26T11:59:51.817Z,27.60
2023-02-26T12:03:04.918Z,27.70
2023-02-26T12:06:15.646Z,27.70
2023-02-26T12:09:18.989Z,26.40
2023-02-26T12:12:45.362Z,26.10
2023-02-26T12:16:17.622Z,25.60
2023-02-26T12:19:19.833Z,25.60
2023-02-26T12:22:34.129Z,26.10
2023-02-26T12:25:51.416Z,27.00
2023-02-26T12:29:34.668Z,25.60
2023-02-26T12:33:08.995Z,26.60
2023-02-26T12:36:21.822Z,27.10
2023-02-26T12:39:30.688Z,28.00
2023-02-26T12:42:55.388Z,26.50
2023-02-26T13:56:42.474Z,57.90
2023-02-26T13:59:44.653Z,51.90
2023-02-26T14:02:55.697Z,38.90
2023-02-26T14:06:25.837Z,31.50
2023-02-26T14:09:46.908Z,28.80
2023-02-26T14:13:08.330Z,27.20
2023-02-26T14:16:29.323Z,25.80
2023-02-26T14:19:53.521Z,25.70
2023-02-26T14:23:11.264Z,26.20
2023-02-26T14:26:18.610Z,26.20
2023-02-26T14:29:25.995Z,26.20
2023-02-26T14:32:34.432Z,26.10
2023-02-26T14:35:40.693Z,25.50
2023-02-26T14:38:45.381Z,25.20
2023-02-26T14:41:47.776Z,25.90
2023-02-26T14:44:58.021Z,25.40
2023-02-26T14:48:03.638Z,26.10
2023-02-26T14:51:17.965Z,26.10
2023-02-26T14:54:36.476Z,25.00
2023-02-26T14:57:53.996Z,24.70
2023-02-26T15:01:21.400Z,25.00
2023-02-26T15:04:54.333Z,25.50
2023-02-26T15:08:08.247Z,24.30
2023-02-26T15:11:24.751Z,23.00
2023-02-26T15:14:34.788Z,23.50
2023-02-26T15:17:39.888Z,23.80
2023-02-26T15:20:53.235Z,23.20
2023-02-26T15:23:58.400Z,22.70
2023-02-26T15:27:03.611Z,22.70
2023-02-26T15:30:06.573Z,21.50
2023-02-26T15:33:16.274Z,21.80
2023-02-26T15:36:22.064Z,22.30
2023-02-26T15:39:25.780Z,21.50
2023-02-26T15:42:33.711Z,21.00
2023-02-26T15:45:42.790Z,20.80
2023-02-26T15:48:45.326Z,20.30
2023-02-26T15:51:47.724Z,20.00
2023-02-26T15:54:53.321Z,19.90
2023-02-26T15:57:55.501Z,19.60
2023-02-26T16:01:01.752Z,19.40
2023-02-26T16:04:07.863Z,19.00
2023-02-26T16:07:12.064Z,18.80
2023-02-26T16:10:32.846Z,18.10
2023-02-26T16:13:39.839Z,18.30
2023-02-26T16:16:46.240Z,18.20
2023-02-26T16:19:50.762Z,18.30
2023-02-26T16:23:10.802Z,18.40
2023-02-26T16:26:25.600Z,17.80
2023-02-26T16:29:33.962Z,19.10
2023-02-26T16:32:36.585Z,19.20
2023-02-26T16:35:43.335Z,19.50
2023-02-26T16:38:57.927Z,18.80
2023-02-26T16:42:10.541Z,18.70
2023-02-26T16:45:18.832Z,18.30
2023-02-26T16:48:52.640Z,18.20
2023-02-26T16:51:56.736Z,18.80
2023-02-26T16:55:04.006Z,19.90
2023-02-26T16:58:13.949Z,20.40
2023-02-26T17:01:19.739Z,20.60
2023-02-26T17:04:35.177Z,21.40
2023-02-26T17:07:47.792Z,21.50
2023-02-26T17:11:02.860Z,22.30
2023-02-26T17:14:23.995Z,22.00
2023-02-26T17:17:26.715Z,22.30
2023-02-26T17:20:30.492Z,22.60
2023-02-26T17:23:37.056Z,23.30
2023-02-26T17:26:39.409Z,23.90
2023-02-26T17:29:44.244Z,24.00
2023-02-26T17:32:46.819Z,23.30
2023-02-26T17:35:50.062Z,23.50
2023-02-26T17:38:52.026Z,23.10
2023-02-26T17:41:54.905Z,23.10
2023-02-26T17:44:57.054Z,23.20
2023-02-26T17:47:59.425Z,23.20
2023-02-26T17:51:01.443Z,22.70
2023-02-26T17:54:03.897Z,23.20
2023-02-26T17:57:06.997Z,23.00
2023-02-26T18:00:17.909Z,22.90
2023-02-26T18:03:20.589Z,22.80
2023-02-26T18:06:24.542Z,22.80
2023-02-26T18:09:26.496Z,22.50
2023-02-26T18:12:28.875Z,21.70
2023-02-26T18:15:30.908Z,21.70
2023-02-26T18:18:33.581Z,21.00
2023-02-26T18:21:35.634Z,21.20
2023-02-26T18:24:38.380Z,21.20
2023-02-26T18:27:42.213Z,21.30
2023-02-26T18:30:48.840Z,21.20
2023-02-26T18:33:52.037Z,21.40
2023-02-26T18:36:56.099Z,21.30
2023-02-26T18:39:58.395Z,21.30
2023-02-26T18:43:18.959Z,20.90
2023-02-26T18:46:25.501Z,20.30
2023-02-26T18:49:28.046Z,20.30
2023-02-26T18:52:30.296Z,20.50
2023-02-26T18:55:42.309Z,20.30
2023-02-26T18:58:44.363Z,20.30
2023-02-26T19:05:29.504Z,20.50
2023-02-26T19:09:27.090Z,20.50
2023-02-26T19:13:11.613Z,20.10
2023-02-26T19:20:06.251Z,20.60
2023-02-26T19:23:24.595Z,20.20
2023-02-26T19:26:26.698Z,19.80
2023-02-26T19:29:32.144Z,19.70
2023-02-26T19:32:36.836Z,20.10
2023-02-26T19:35:39.796Z,19.90
2023-02-26T19:38:50.381Z,20.00
2023-02-26T19:41:53.815Z,20.30
2023-02-26T19:45:10.753Z,20.50
2023-02-26T19:48:23.366Z,20.10
2023-02-26T19:51:50.058Z,20.30
2023-02-26T19:54:54.565Z,20.10
2023-02-26T19:57:56.941Z,19.90
2023-02-26T20:01:01.620Z,20.20
2023-02-26T20:04:07.619Z,20.20
2023-02-26T20:07:13.820Z,20.10
2023-02-26T20:10:16.259Z,20.10
2023-02-26T20:13:25.678Z,20.70
2023-02-26T20:16:27.817Z,20.90
2023-02-26T20:19:30.502Z,20.80
2023-02-26T20:22:39.351Z,21.80
2023-02-26T20:25:51.009Z,21.60
2023-02-26T20:28:55.097Z,22.80
2023-02-26T20:32:00.584Z,22.50
2023-02-26T20:35:06.040Z,22.50
2023-02-26T20:38:11.737Z,22.90
2023-02-26T20:41:19.856Z,22.90
2023-02-26T20:44:38.594Z,22.40
2023-02-26T20:47:40.691Z,22.50
2023-02-26T20:51:16.443Z,22.30
2023-02-26T20:54:32.162Z,22.10
2023-02-26T20:57:45.690Z,22.80
2023-02-26T21:00:50.986Z,21.70
2023-02-26T21:03:54.155Z,21.10
2023-02-26T21:07:12.776Z,20.70
2023-02-26T21:10:17.029Z,20.90
2023-02-26T21:13:22.855Z,21.20
2023-02-26T21:16:25.563Z,21.10
2023-02-26T21:19:28.637Z,21.10
2023-02-26T21:22:32.466Z,20.70
2023-02-26T21:25:37.217Z,21.00
2023-02-26T21:28:49.697Z,21.30
2023-02-26T21:31:57.129Z,21.20
2023-02-26T21:34:59.270Z,20.70
2023-02-26T21:38:02.585Z,20.20
2023-02-26T21:41:05.348Z,20.80
2023-02-26T21:44:08.219Z,20.00
2023-02-26T21:47:11.128Z,19.70
2023-02-26T21:50:13.563Z,19.60
2023-02-26T21:53:15.756Z,19.60
2023-02-26T21:56:20.220Z,19.30
2023-02-26T21:59:23.361Z,19.20
2023-02-26T22:02:25.815Z,18.90
2023-02-26T22:05:27.837Z,18.60
2023-02-26T22:08:30.211Z,18.90
2023-02-26T22:11:32.266Z,18.70
2023-02-26T22:14:34.717Z,18.50
2023-02-26T22:17:37.390Z,18.50
2023-02-26T22:20:39.719Z,18.50
2023-02-26T22:23:41.687Z,18.30
2023-02-26T22:26:44.927Z,18.30
2023-02-26T22:29:47.266Z,18.30
2023-02-26T22:32:49.755Z,18.10
2023-02-26T22:35:59.937Z,18.00
2023-02-26T22:39:04.083Z,18.10
2023-02-26T22:42:06.158Z,18.00
2023-02-26T22:45:09.985Z,18.10
2023-02-26T22:48:12.204Z,18.10
2023-02-26T22:51:14.432Z,18.00
2023-02-26T22:54:16.437Z,18.70
2023-02-26T22:57:18.688Z,18.50
2023-02-26T23:00:21.348Z,18.70
2023-02-26T23:03:23.710Z,18.80
2023-02-26T23:06:26.098Z,19.40
2023-02-26T23:09:28.377Z,19.20
2023-02-26T23:12:30.466Z,20.20
2023-02-26T23:15:32.860Z,20.80
2023-02-26T23:18:36.479Z,21.00
2023-02-26T23:21:38.909Z,21.10
2023-02-26T23:24:41.580Z,20.70
2023-02-26T23:27:44.011Z,21.50
2023-02-26T23:30:46.359Z,21.90
2023-02-26T23:33:48.714Z,22.50
2023-02-26T23:36:50.829Z,22.70
2023-02-26T23:39:53.130Z,22.50
2023-02-26T23:42:56.169Z,23.30
2023-02-26T23:45:58.482Z,23.60
2023-02-26T23:49:00.601Z,23.50
2023-02-26T23:52:03.892Z,22.90
2023-02-26T23:55:06.649Z,22.90
2023-02-26T23:58:08.885Z,23.00
